sensor_id;sensor_type;location;lat;lon;timestamp;P1;durP1;ratioP1;P2;durP2;ratioP2
19653;SDS011;9975;48.046;7.804;2022-07-03T02:04:24;2.97;;;2.57;;
19653;SDS011;9975;48.046;7.804;2022-07-03T02:10:02;3.57;;;2.50;;
19653;SDS011;9975;48.046;7.804;2022-07-03T02:12:30;1.87;;;1.77;;
19653;SDS011;9975;48.046;7.804;2022-07-03T02:15:18;2.23;;;2.10;;
19653;SDS011;9975;48.046;7.804;2022-07-03T02:20:58;2.67;;;2.47;;
19653;SDS011;9975;48.046;7.804;2022-07-03T02:23:52;1.73;;;1.63;;
19653;SDS011;9975;48.046;7.804;2022-07-03T02:26:40;2.57;;;2.37;;
19653;SDS011;9975;48.046;7.804;2022-07-03T02:29:09;3.60;;;3.33;;
19653;SDS011;9975;48.046;7.804;2022-07-03T02:31:43;2.77;;;2.27;;
19653;SDS011;9975;48.046;7.804;2022-07-03T02:34:15;2.90;;;2.60;;
19653;SDS011;9975;48.046;7.804;2022-07-03T02:36:46;2.40;;;2.30;;
19653;SDS011;9975;48.046;7.804;2022-07-03T02:39:20;2.67;;;2.20;;
19653;SDS011;9975;48.046;7.804;2022-07-03T02:42:00;2.93;;;2.10;;
19653;SDS011;9975;48.046;7.804;2022-07-03T02:44:41;2.40;;;2.20;;
19653;SDS011;9975;48.046;7.804;2022-07-03T02:47:27;2.30;;;2.10;;
19653;SDS011;9975;48.046;7.804;2022-07-03T02:50:06;3.57;;;2.53;;
19653;SDS011;9975;48.046;7.804;2022-07-03T02:57:41;2.70;;;2.50;;
19653;SDS011;9975;48.046;7.804;2022-07-03T03:00:09;2.03;;;1.93;;
19653;SDS011;9975;48.046;7.804;2022-07-03T03:02:45;3.07;;;2.07;;
19653;SDS011;9975;48.046;7.804;2022-07-03T03:10:44;2.20;;;2.00;;
19653;SDS011;9975;48.046;7.804;2022-07-03T03:13:14;3.20;;;2.90;;
19653;SDS011;9975;48.046;7.804;2022-07-03T03:18:34;2.47;;;1.70;;
19653;SDS011;9975;48.046;7.804;2022-07-03T03:21:03;2.83;;;2.30;;
19653;SDS011;9975;48.046;7.804;2022-07-03T03:23:35;4.33;;;2.20;;
19653;SDS011;9975;48.046;7.804;2022-07-03T03:26:03;2.03;;;1.93;;
19653;SDS011;9975;48.046;7.804;2022-07-03T03:28:29;3.50;;;2.33;;
19653;SDS011;9975;48.046;7.804;2022-07-03T03:30:55;2.30;;;2.20;;
19653;SDS011;9975;48.046;7.804;2022-07-03T03:33:21;3.27;;;2.20;;
19653;SDS011;9975;48.046;7.804;2022-07-03T03:35:47;3.87;;;2.43;;
19653;SDS011;9975;48.046;7.804;2022-07-03T03:38:13;3.10;;;2.20;;
19653;SDS011;9975;48.046;7.804;2022-07-03T03:40:40;2.07;;;1.90;;
19653;SDS011;9975;48.046;7.804;2022-07-03T03:43:05;2.53;;;2.23;;
19653;SDS011;9975;48.046;7.804;2022-07-03T03:45:31;2.20;;;2.00;;
19653;SDS011;9975;48.046;7.804;2022-07-03T03:47:57;2.03;;;1.93;;
19653;SDS011;9975;48.046;7.804;2022-07-03T03:50:23;2.10;;;1.90;;
19653;SDS011;9975;48.046;7.804;2022-07-03T03:52:49;2.53;;;2.33;;
19653;SDS011;9975;48.046;7.804;2022-07-03T03:55:15;2.00;;;1.90;;
19653;SDS011;9975;48.046;7.804;2022-07-03T03:57:41;2.80;;;2.60;;
19653;SDS011;9975;48.046;7.804;2022-07-03T04:00:07;3.40;;;2.30;;
19653;SDS011;9975;48.046;7.804;2022-07-03T04:02:33;4.13;;;2.30;;
19653;SDS011;9975;48.046;7.804;2022-07-03T04:04:58;1.80;;;1.70;;
19653;SDS011;9975;48.046;7.804;2022-07-03T04:07:24;2.13;;;1.90;;
19653;SDS011;9975;48.046;7.804;2022-07-03T04:09:50;2.90;;;1.87;;
19653;SDS011;9975;48.046;7.804;2022-07-03T04:12:16;3.93;;;2.27;;
19653;SDS011;9975;48.046;7.804;2022-07-03T04:14:42;1.97;;;1.87;;
19653;SDS011;9975;48.046;7.804;2022-07-03T04:17:07;3.00;;;2.73;;
19653;SDS011;9975;48.046;7.804;2022-07-03T04:19:33;2.93;;;2.20;;
19653;SDS011;9975;48.046;7.804;2022-07-03T04:21:59;1.70;;;1.60;;
19653;SDS011;9975;48.046;7.804;2022-07-03T04:24:24;2.83;;;1.93;;
19653;SDS011;9975;48.046;7.804;2022-07-03T04:26:50;2.00;;;1.80;;
19653;SDS011;9975;48.046;7.804;2022-07-03T04:29:16;1.97;;;1.87;;
19653;SDS011;9975;48.046;7.804;2022-07-03T04:31:42;1.80;;;1.70;;
19653;SDS011;9975;48.046;7.804;2022-07-03T04:34:07;2.27;;;2.07;;
19653;SDS011;9975;48.046;7.804;2022-07-03T04:36:33;2.67;;;1.60;;
19653;SDS011;9975;48.046;7.804;2022-07-03T04:38:59;2.20;;;2.00;;
19653;SDS011;9975;48.046;7.804;2022-07-03T04:41:24;4.70;;;2.27;;
19653;SDS011;9975;48.046;7.804;2022-07-03T04:43:50;2.80;;;2.00;;
19653;SDS011;9975;48.046;7.804;2022-07-03T04:46:16;2.90;;;1.90;;
19653;SDS011;9975;48.046;7.804;2022-07-03T04:48:41;2.10;;;2.00;;
19653;SDS011;9975;48.046;7.804;2022-07-03T04:51:07;2.20;;;2.10;;
19653;SDS011;9975;48.046;7.804;2022-07-03T04:53:33;2.20;;;2.00;;
19653;SDS011;9975;48.046;7.804;2022-07-03T04:55:58;4.00;;;1.70;;
19653;SDS011;9975;48.046;7.804;2022-07-03T04:58:24;2.13;;;1.93;;
19653;SDS011;9975;48.046;7.804;2022-07-03T05:00:50;1.90;;;1.70;;
19653;SDS011;9975;48.046;7.804;2022-07-03T05:03:16;3.23;;;1.70;;
19653;SDS011;9975;48.046;7.804;2022-07-03T05:05:41;2.13;;;2.00;;
19653;SDS011;9975;48.046;7.804;2022-07-03T05:08:07;1.83;;;1.70;;
19653;SDS011;9975;48.046;7.804;2022-07-03T05:10:33;3.03;;;2.63;;
19653;SDS011;9975;48.046;7.804;2022-07-03T05:12:58;3.70;;;1.83;;
19653;SDS011;9975;48.046;7.804;2022-07-03T05:15:24;2.60;;;2.10;;
19653;SDS011;9975;48.046;7.804;2022-07-03T05:17:49;5.63;;;1.90;;
19653;SDS011;9975;48.046;7.804;2022-07-03T05:20:15;6.60;;;4.37;;
19653;SDS011;9975;48.046;7.804;2022-07-03T05:22:53;2.63;;;2.13;;
19653;SDS011;9975;48.046;7.804;2022-07-03T05:25:20;2.20;;;2.00;;
19653;SDS011;9975;48.046;7.804;2022-07-03T05:27:46;2.37;;;1.90;;
19653;SDS011;9975;48.046;7.804;2022-07-03T05:30:12;1.60;;;1.50;;
19653;SDS011;9975;48.046;7.804;2022-07-03T05:32:38;2.57;;;2.27;;
19653;SDS011;9975;48.046;7.804;2022-07-03T05:35:04;2.50;;;2.03;;
19653;SDS011;9975;48.046;7.804;2022-07-03T05:37:31;1.83;;;1.40;;
19653;SDS011;9975;48.046;7.804;2022-07-03T05:39:56;1.40;;;1.30;;
19653;SDS011;9975;48.046;7.804;2022-07-03T05:42:22;1.40;;;1.30;;
19653;SDS011;9975;48.046;7.804;2022-07-03T05:44:48;2.00;;;1.10;;
19653;SDS011;9975;48.046;7.804;2022-07-03T05:47:13;6.33;;;2.03;;
19653;SDS011;9975;48.046;7.804;2022-07-03T05:49:39;2.90;;;1.40;;
19653;SDS011;9975;48.046;7.804;2022-07-03T05:52:06;1.40;;;1.30;;
19653;SDS011;9975;48.046;7.804;2022-07-03T05:54:32;1.70;;;1.33;;
19653;SDS011;9975;48.046;7.804;2022-07-03T05:56:57;1.17;;;1.13;;
19653;SDS011;9975;48.046;7.804;2022-07-03T05:59:23;1.67;;;1.23;;
19653;SDS011;9975;48.046;7.804;2022-07-03T06:01:48;1.57;;;1.13;;
19653;SDS011;9975;48.046;7.804;2022-07-03T06:04:14;1.20;;;1.10;;
19653;SDS011;9975;48.046;7.804;2022-07-03T06:06:40;3.63;;;1.33;;
19653;SDS011;9975;48.046;7.804;2022-07-03T06:09:05;2.60;;;1.20;;
19653;SDS011;9975;48.046;7.804;2022-07-03T06:11:31;1.20;;;1.10;;
19653;SDS011;9975;48.046;7.804;2022-07-03T06:13:57;1.20;;;1.10;;
19653;SDS011;9975;48.046;7.804;2022-07-03T06:16:22;3.07;;;1.23;;
19653;SDS011;9975;48.046;7.804;2022-07-03T06:18:48;1.03;;;1.00;;
19653;SDS011;9975;48.046;7.804;2022-07-03T06:21:14;1.10;;;1.00;;
19653;SDS011;9975;48.046;7.804;2022-07-03T06:23:40;1.93;;;1.30;;
19653;SDS011;9975;48.046;7.804;2022-07-03T06:26:05;5.83;;;1.53;;
19653;SDS011;9975;48.046;7.804;2022-07-03T06:28:31;1.80;;;1.70;;
19653;SDS011;9975;48.046;7.804;2022-07-03T06:30:56;1.20;;;1.10;;
19653;SDS011;9975;48.046;7.804;2022-07-03T06:33:22;1.40;;;1.30;;
19653;SDS011;9975;48.046;7.804;2022-07-03T06:35:48;1.70;;;1.60;;
19653;SDS011;9975;48.046;7.804;2022-07-03T06:38:13;1.00;;;1.00;;
19653;SDS011;9975;48.046;7.804;2022-07-03T06:40:39;2.53;;;1.30;;
19653;SDS011;9975;48.046;7.804;2022-07-03T06:43:05;5.30;;;1.17;;
19653;SDS011;9975;48.046;7.804;2022-07-03T06:45:30;1.10;;;1.10;;
19653;SDS011;9975;48.046;7.804;2022-07-03T06:47:56;2.20;;;1.33;;
19653;SDS011;9975;48.046;7.804;2022-07-03T06:50:22;4.53;;;1.43;;
19653;SDS011;9975;48.046;7.804;2022-07-03T06:52:47;1.40;;;1.23;;
19653;SDS011;9975;48.046;7.804;2022-07-03T06:55:13;1.07;;;1.07;;
19653;SDS011;9975;48.046;7.804;2022-07-03T06:57:39;0.90;;;0.90;;
19653;SDS011;9975;48.046;7.804;2022-07-03T07:00:05;1.00;;;1.00;;
19653;SDS011;9975;48.046;7.804;2022-07-03T07:02:31;2.50;;;1.20;;
19653;SDS011;9975;48.046;7.804;2022-07-03T07:04:57;2.40;;;1.30;;
19653;SDS011;9975;48.046;7.804;2022-07-03T07:07:22;1.73;;;1.20;;
19653;SDS011;9975;48.046;7.804;2022-07-03T07:09:48;1.33;;;1.13;;
19653;SDS011;9975;48.046;7.804;2022-07-03T07:12:14;1.10;;;1.00;;
19653;SDS011;9975;48.046;7.804;2022-07-03T07:14:39;1.00;;;0.93;;
19653;SDS011;9975;48.046;7.804;2022-07-03T07:17:05;1.73;;;1.10;;
19653;SDS011;9975;48.046;7.804;2022-07-03T07:19:31;1.77;;;1.37;;
19653;SDS011;9975;48.046;7.804;2022-07-03T07:21:57;1.93;;;0.90;;
19653;SDS011;9975;48.046;7.804;2022-07-03T07:24:23;0.90;;;0.90;;
19653;SDS011;9975;48.046;7.804;2022-07-03T07:26:48;4.10;;;1.50;;
19653;SDS011;9975;48.046;7.804;2022-07-03T07:29:14;1.03;;;1.00;;
19653;SDS011;9975;48.046;7.804;2022-07-03T07:31:39;2.30;;;0.87;;
19653;SDS011;9975;48.046;7.804;2022-07-03T07:34:05;1.70;;;0.97;;
19653;SDS011;9975;48.046;7.804;2022-07-03T07:36:31;1.20;;;1.10;;
19653;SDS011;9975;48.046;7.804;2022-07-03T07:38:57;1.20;;;1.10;;
19653;SDS011;9975;48.046;7.804;2022-07-03T07:41:23;0.93;;;0.80;;
19653;SDS011;9975;48.046;7.804;2022-07-03T07:43:48;3.50;;;0.83;;
19653;SDS011;9975;48.046;7.804;2022-07-03T07:46:14;1.33;;;0.70;;
19653;SDS011;9975;48.046;7.804;2022-07-03T07:48:40;3.53;;;1.33;;
19653;SDS011;9975;48.046;7.804;2022-07-03T07:51:05;1.90;;;0.90;;
19653;SDS011;9975;48.046;7.804;2022-07-03T07:53:31;0.80;;;0.80;;
19653;SDS011;9975;48.046;7.804;2022-07-03T07:55:57;0.80;;;0.80;;
19653;SDS011;9975;48.046;7.804;2022-07-03T07:58:22;1.47;;;1.00;;
19653;SDS011;9975;48.046;7.804;2022-07-03T08:00:48;3.90;;;1.43;;
19653;SDS011;9975;48.046;7.804;2022-07-03T08:03:34;1.77;;;1.07;;
19653;SDS011;9975;48.046;7.804;2022-07-03T08:06:18;0.93;;;0.93;;
19653;SDS011;9975;48.046;7.804;2022-07-03T08:08:44;1.03;;;0.90;;
19653;SDS011;9975;48.046;7.804;2022-07-03T08:11:10;1.63;;;0.83;;
19653;SDS011;9975;48.046;7.804;2022-07-03T08:13:35;3.83;;;2.07;;
19653;SDS011;9975;48.046;7.804;2022-07-03T08:16:01;0.80;;;0.80;;
19653;SDS011;9975;48.046;7.804;2022-07-03T08:18:27;1.33;;;1.10;;
19653;SDS011;9975;48.046;7.804;2022-07-03T08:20:53;1.13;;;1.03;;
19653;SDS011;9975;48.046;7.804;2022-07-03T08:23:18;0.87;;;0.80;;
19653;SDS011;9975;48.046;7.804;2022-07-03T08:25:44;2.30;;;0.93;;
19653;SDS011;9975;48.046;7.804;2022-07-03T08:28:11;1.23;;;0.93;;
19653;SDS011;9975;48.046;7.804;2022-07-03T08:30:36;0.80;;;0.77;;
19653;SDS011;9975;48.046;7.804;2022-07-03T08:33:02;0.60;;;0.60;;
19653;SDS011;9975;48.046;7.804;2022-07-03T08:35:28;1.17;;;0.90;;
19653;SDS011;9975;48.046;7.804;2022-07-03T08:37:54;1.00;;;0.70;;
19653;SDS011;9975;48.046;7.804;2022-07-03T08:40:20;3.13;;;0.97;;
19653;SDS011;9975;48.046;7.804;2022-07-03T08:45:18;1.90;;;0.90;;
19653;SDS011;9975;48.046;7.804;2022-07-03T08:47:45;2.83;;;1.23;;
19653;SDS011;9975;48.046;7.804;2022-07-03T08:50:12;3.63;;;0.83;;
19653;SDS011;9975;48.046;7.804;2022-07-03T08:52:40;1.70;;;1.03;;
19653;SDS011;9975;48.046;7.804;2022-07-03T08:55:06;2.90;;;0.87;;
19653;SDS011;9975;48.046;7.804;2022-07-03T08:57:33;0.80;;;0.80;;
19653;SDS011;9975;48.046;7.804;2022-07-03T09:00:03;2.13;;;0.80;;
19653;SDS011;9975;48.046;7.804;2022-07-03T09:02:30;0.80;;;0.60;;
19653;SDS011;9975;48.046;7.804;2022-07-03T09:04:57;3.23;;;1.10;;
19653;SDS011;9975;48.046;7.804;2022-07-03T09:07:26;1.07;;;0.80;;
19653;SDS011;9975;48.046;7.804;2022-07-03T09:09:52;1.10;;;0.70;;
19653;SDS011;9975;48.046;7.804;2022-07-03T09:12:18;1.27;;;0.80;;
19653;SDS011;9975;48.046;7.804;2022-07-03T09:14:44;0.90;;;0.90;;
19653;SDS011;9975;48.046;7.804;2022-07-03T09:17:10;1.17;;;1.10;;
19653;SDS011;9975;48.046;7.804;2022-07-03T09:19:39;1.00;;;1.00;;
19653;SDS011;9975;48.046;7.804;2022-07-03T09:22:19;4.00;;;0.87;;
19653;SDS011;9975;48.046;7.804;2022-07-03T09:25:08;1.53;;;1.00;;
19653;SDS011;9975;48.046;7.804;2022-07-03T09:27:36;0.80;;;0.70;;
19653;SDS011;9975;48.046;7.804;2022-07-03T09:30:03;0.60;;;0.60;;
19653;SDS011;9975;48.046;7.804;2022-07-03T09:37:47;0.77;;;0.60;;
19653;SDS011;9975;48.046;7.804;2022-07-03T09:40:25;1.17;;;0.70;;
19653;SDS011;9975;48.046;7.804;2022-07-03T09:45:24;1.07;;;0.80;;
19653;SDS011;9975;48.046;7.804;2022-07-03T09:47:50;1.57;;;0.60;;
19653;SDS011;9975;48.046;7.804;2022-07-03T09:50:15;0.90;;;0.80;;
19653;SDS011;9975;48.046;7.804;2022-07-03T09:52:42;1.33;;;0.93;;
19653;SDS011;9975;48.046;7.804;2022-07-03T09:55:18;2.33;;;1.13;;
19653;SDS011;9975;48.046;7.804;2022-07-03T10:00:37;1.03;;;0.80;;
19653;SDS011;9975;48.046;7.804;2022-07-03T10:03:03;0.83;;;0.67;;
19653;SDS011;9975;48.046;7.804;2022-07-03T10:05:31;0.90;;;0.57;;
19653;SDS011;9975;48.046;7.804;2022-07-03T10:10:32;1.37;;;0.90;;
19653;SDS011;9975;48.046;7.804;2022-07-03T10:13:00;0.70;;;0.70;;
19653;SDS011;9975;48.046;7.804;2022-07-03T10:15:27;1.37;;;0.90;;
19653;SDS011;9975;48.046;7.804;2022-07-03T10:17:56;3.17;;;1.10;;
19653;SDS011;9975;48.046;7.804;2022-07-03T10:20:30;6.80;;;0.80;;
19653;SDS011;9975;48.046;7.804;2022-07-03T10:23:16;2.27;;;0.77;;
19653;SDS011;9975;48.046;7.804;2022-07-03T10:25:45;1.53;;;0.77;;
19653;SDS011;9975;48.046;7.804;2022-07-03T10:28:12;1.20;;;0.87;;
19653;SDS011;9975;48.046;7.804;2022-07-03T10:30:38;3.23;;;1.17;;
19653;SDS011;9975;48.046;7.804;2022-07-03T10:33:07;2.83;;;0.80;;
19653;SDS011;9975;48.046;7.804;2022-07-03T10:35:34;0.90;;;0.90;;
19653;SDS011;9975;48.046;7.804;2022-07-03T10:43:28;0.93;;;0.70;;
19653;SDS011;9975;48.046;7.804;2022-07-03T10:46:29;1.20;;;0.87;;
19653;SDS011;9975;48.046;7.804;2022-07-03T10:48:56;1.30;;;1.20;;
19653;SDS011;9975;48.046;7.804;2022-07-03T10:51:27;0.83;;;0.83;;
19653;SDS011;9975;48.046;7.804;2022-07-03T10:54:15;2.60;;;0.80;;
19653;SDS011;9975;48.046;7.804;2022-07-03T10:59:23;0.70;;;0.60;;
19653;SDS011;9975;48.046;7.804;2022-07-03T11:05:03;1.20;;;0.63;;
19653;SDS011;9975;48.046;7.804;2022-07-03T11:15:27;1.07;;;0.90;;
19653;SDS011;9975;48.046;7.804;2022-07-03T11:20:33;1.33;;;1.00;;
19653;SDS011;9975;48.046;7.804;2022-07-03T11:23:03;0.90;;;0.90;;
19653;SDS011;9975;48.046;7.804;2022-07-03T11:25:41;0.90;;;0.90;;
19653;SDS011;9975;48.046;7.804;2022-07-03T11:38:43;1.23;;;1.03;;
19653;SDS011;9975;48.046;7.804;2022-07-03T11:41:10;0.93;;;0.87;;
19653;SDS011;9975;48.046;7.804;2022-07-03T11:43:37;1.07;;;1.07;;
19653;SDS011;9975;48.046;7.804;2022-07-03T11:46:03;1.47;;;1.10;;
19653;SDS011;9975;48.046;7.804;2022-07-03T11:48:29;1.10;;;1.00;;
19653;SDS011;9975;48.046;7.804;2022-07-03T11:51:00;2.23;;;0.80;;
19653;SDS011;9975;48.046;7.804;2022-07-03T11:53:30;0.90;;;0.90;;
19653;SDS011;9975;48.046;7.804;2022-07-03T11:55:59;1.60;;;0.60;;
19653;SDS011;9975;48.046;7.804;2022-07-03T12:01:11;3.93;;;1.00;;
19653;SDS011;9975;48.046;7.804;2022-07-03T12:04:08;2.10;;;0.90;;
19653;SDS011;9975;48.046;7.804;2022-07-03T12:09:21;1.30;;;1.20;;
19653;SDS011;9975;48.046;7.804;2022-07-03T12:17:07;1.10;;;0.93;;
19653;SDS011;9975;48.046;7.804;2022-07-03T12:19:34;2.17;;;1.10;;
19653;SDS011;9975;48.046;7.804;2022-07-03T12:22:00;1.17;;;1.17;;
19653;SDS011;9975;48.046;7.804;2022-07-03T12:24:26;1.87;;;1.70;;
19653;SDS011;9975;48.046;7.804;2022-07-03T12:26:52;3.07;;;1.00;;
19653;SDS011;9975;48.046;7.804;2022-07-03T12:29:17;2.10;;;1.20;;
19653;SDS011;9975;48.046;7.804;2022-07-03T12:31:44;1.00;;;1.00;;
19653;SDS011;9975;48.046;7.804;2022-07-03T12:34:12;1.07;;;1.07;;
19653;SDS011;9975;48.046;7.804;2022-07-03T12:36:38;1.00;;;1.00;;
19653;SDS011;9975;48.046;7.804;2022-07-03T12:39:04;1.70;;;1.10;;
19653;SDS011;9975;48.046;7.804;2022-07-03T12:41:30;2.23;;;1.13;;
19653;SDS011;9975;48.046;7.804;2022-07-03T12:43:58;0.97;;;0.90;;
19653;SDS011;9975;48.046;7.804;2022-07-03T12:48:59;4.07;;;1.10;;
19653;SDS011;9975;48.046;7.804;2022-07-03T12:51:38;3.50;;;1.20;;
19653;SDS011;9975;48.046;7.804;2022-07-03T12:54:21;2.33;;;1.03;;
19653;SDS011;9975;48.046;7.804;2022-07-03T12:57:10;3.40;;;1.30;;
19653;SDS011;9975;48.046;7.804;2022-07-03T13:00:03;3.17;;;1.23;;
19653;SDS011;9975;48.046;7.804;2022-07-03T13:02:34;2.07;;;1.80;;
19653;SDS011;9975;48.046;7.804;2022-07-03T13:05:01;1.20;;;1.10;;
19653;SDS011;9975;48.046;7.804;2022-07-03T13:07:41;1.90;;;1.17;;
19653;SDS011;9975;48.046;7.804;2022-07-03T13:10:08;1.60;;;1.50;;
19653;SDS011;9975;48.046;7.804;2022-07-03T13:12:34;2.20;;;1.10;;
19653;SDS011;9975;48.046;7.804;2022-07-03T13:15:09;2.30;;;1.17;;
19653;SDS011;9975;48.046;7.804;2022-07-03T13:17:49;1.30;;;1.30;;
19653;SDS011;9975;48.046;7.804;2022-07-03T13:20:18;1.20;;;1.10;;
19653;SDS011;9975;48.046;7.804;2022-07-03T13:22:48;2.13;;;1.17;;
19653;SDS011;9975;48.046;7.804;2022-07-03T13:25:21;6.67;;;1.33;;
19653;SDS011;9975;48.046;7.804;2022-07-03T13:27:47;1.40;;;1.30;;
19653;SDS011;9975;48.046;7.804;2022-07-03T13:30:13;5.17;;;1.20;;
19653;SDS011;9975;48.046;7.804;2022-07-03T13:32:40;2.07;;;1.67;;
19653;SDS011;9975;48.046;7.804;2022-07-03T13:35:06;1.33;;;1.23;;
19653;SDS011;9975;48.046;7.804;2022-07-03T13:37:33;1.60;;;1.50;;
19653;SDS011;9975;48.046;7.804;2022-07-03T13:40:00;1.10;;;1.10;;
19653;SDS011;9975;48.046;7.804;2022-07-03T13:42:26;0.90;;;0.90;;
19653;SDS011;9975;48.046;7.804;2022-07-03T13:44:52;1.77;;;1.10;;
19653;SDS011;9975;48.046;7.804;2022-07-03T13:47:18;1.30;;;1.20;;
19653;SDS011;9975;48.046;7.804;2022-07-03T13:49:43;3.80;;;1.20;;
19653;SDS011;9975;48.046;7.804;2022-07-03T13:52:09;2.80;;;1.20;;
19653;SDS011;9975;48.046;7.804;2022-07-03T13:54:35;1.30;;;1.23;;
19653;SDS011;9975;48.046;7.804;2022-07-03T13:57:01;0.87;;;0.87;;
19653;SDS011;9975;48.046;7.804;2022-07-03T13:59:27;4.50;;;1.30;;
19653;SDS011;9975;48.046;7.804;2022-07-03T14:01:55;1.60;;;1.50;;
19653;SDS011;9975;48.046;7.804;2022-07-03T14:04:25;1.80;;;1.10;;
19653;SDS011;9975;48.046;7.804;2022-07-03T14:06:51;2.20;;;1.40;;
19653;SDS011;9975;48.046;7.804;2022-07-03T14:09:17;4.00;;;1.30;;
19653;SDS011;9975;48.046;7.804;2022-07-03T14:11:42;1.80;;;1.07;;
19653;SDS011;9975;48.046;7.804;2022-07-03T14:14:08;1.20;;;1.10;;
19653;SDS011;9975;48.046;7.804;2022-07-03T14:16:34;1.80;;;1.50;;
19653;SDS011;9975;48.046;7.804;2022-07-03T14:18:59;2.17;;;1.40;;
19653;SDS011;9975;48.046;7.804;2022-07-03T14:21:28;2.50;;;1.30;;
19653;SDS011;9975;48.046;7.804;2022-07-03T14:23:54;1.53;;;1.27;;
19653;SDS011;9975;48.046;7.804;2022-07-03T14:26:20;4.23;;;1.53;;
19653;SDS011;9975;48.046;7.804;2022-07-03T14:29:05;1.30;;;1.20;;
19653;SDS011;9975;48.046;7.804;2022-07-03T14:31:51;1.17;;;1.10;;
19653;SDS011;9975;48.046;7.804;2022-07-03T14:34:36;1.20;;;1.10;;
19653;SDS011;9975;48.046;7.804;2022-07-03T14:37:02;2.30;;;1.20;;
19653;SDS011;9975;48.046;7.804;2022-07-03T14:39:28;1.63;;;1.40;;
19653;SDS011;9975;48.046;7.804;2022-07-03T14:41:54;1.30;;;1.20;;
19653;SDS011;9975;48.046;7.804;2022-07-03T14:44:19;1.30;;;1.20;;
19653;SDS011;9975;48.046;7.804;2022-07-03T14:46:51;2.07;;;1.40;;
19653;SDS011;9975;48.046;7.804;2022-07-03T14:49:17;1.87;;;1.27;;
19653;SDS011;9975;48.046;7.804;2022-07-03T14:51:44;2.27;;;1.13;;
19653;SDS011;9975;48.046;7.804;2022-07-03T14:54:11;3.93;;;1.50;;
19653;SDS011;9975;48.046;7.804;2022-07-03T14:56:42;1.30;;;1.20;;
19653;SDS011;9975;48.046;7.804;2022-07-03T14:59:14;1.77;;;1.03;;
19653;SDS011;9975;48.046;7.804;2022-07-03T15:01:40;2.13;;;1.30;;
19653;SDS011;9975;48.046;7.804;2022-07-03T15:04:17;1.80;;;1.30;;
19653;SDS011;9975;48.046;7.804;2022-07-03T15:06:50;1.70;;;0.97;;
19653;SDS011;9975;48.046;7.804;2022-07-03T15:09:21;1.67;;;0.87;;
19653;SDS011;9975;48.046;7.804;2022-07-03T15:11:54;1.17;;;0.93;;
19653;SDS011;9975;48.046;7.804;2022-07-03T15:14:39;1.67;;;1.50;;
19653;SDS011;9975;48.046;7.804;2022-07-03T15:17:08;1.63;;;1.10;;
19653;SDS011;9975;48.046;7.804;2022-07-03T15:19:36;2.70;;;1.00;;
19653;SDS011;9975;48.046;7.804;2022-07-03T15:22:05;1.37;;;1.27;;
19653;SDS011;9975;48.046;7.804;2022-07-03T15:24:35;1.27;;;1.17;;
19653;SDS011;9975;48.046;7.804;2022-07-03T15:27:02;1.43;;;1.20;;
19653;SDS011;9975;48.046;7.804;2022-07-03T15:29:30;0.97;;;0.87;;
19653;SDS011;9975;48.046;7.804;2022-07-03T15:31:55;1.67;;;1.50;;
19653;SDS011;9975;48.046;7.804;2022-07-03T15:34:27;2.13;;;1.80;;
19653;SDS011;9975;48.046;7.804;2022-07-03T15:36:56;3.23;;;1.70;;
19653;SDS011;9975;48.046;7.804;2022-07-03T15:39:30;2.13;;;1.90;;
19653;SDS011;9975;48.046;7.804;2022-07-03T15:42:10;1.30;;;1.20;;
19653;SDS011;9975;48.046;7.804;2022-07-03T15:44:52;2.13;;;1.27;;
19653;SDS011;9975;48.046;7.804;2022-07-03T15:47:36;1.80;;;1.03;;
19653;SDS011;9975;48.046;7.804;2022-07-03T15:53:04;1.83;;;1.10;;
19653;SDS011;9975;48.046;7.804;2022-07-03T15:55:35;1.37;;;1.27;;
19653;SDS011;9975;48.046;7.804;2022-07-03T15:58:06;1.20;;;0.87;;
19653;SDS011;9975;48.046;7.804;2022-07-03T16:00:38;1.93;;;1.30;;
19653;SDS011;9975;48.046;7.804;2022-07-03T16:05:54;1.70;;;1.07;;
19653;SDS011;9975;48.046;7.804;2022-07-03T16:08:21;0.90;;;0.90;;
19653;SDS011;9975;48.046;7.804;2022-07-03T16:10:50;2.87;;;1.20;;
19653;SDS011;9975;48.046;7.804;2022-07-03T16:13:16;1.43;;;1.33;;
19653;SDS011;9975;48.046;7.804;2022-07-03T16:15:49;2.40;;;1.20;;
19653;SDS011;9975;48.046;7.804;2022-07-03T16:18:16;1.03;;;0.90;;
19653;SDS011;9975;48.046;7.804;2022-07-03T16:20:42;3.47;;;1.20;;
19653;SDS011;9975;48.046;7.804;2022-07-03T16:23:10;1.80;;;1.47;;
19653;SDS011;9975;48.046;7.804;2022-07-03T16:25:37;1.80;;;1.00;;
19653;SDS011;9975;48.046;7.804;2022-07-03T16:28:05;1.23;;;1.10;;
19653;SDS011;9975;48.046;7.804;2022-07-03T16:30:35;1.10;;;1.00;;
19653;SDS011;9975;48.046;7.804;2022-07-03T16:33:12;0.87;;;0.87;;
19653;SDS011;9975;48.046;7.804;2022-07-03T16:35:48;2.50;;;1.70;;
19653;SDS011;9975;48.046;7.804;2022-07-03T16:38:35;1.10;;;1.07;;
19653;SDS011;9975;48.046;7.804;2022-07-03T16:41:05;1.00;;;0.93;;
19653;SDS011;9975;48.046;7.804;2022-07-03T16:43:32;1.17;;;1.10;;
19653;SDS011;9975;48.046;7.804;2022-07-03T16:46:04;3.47;;;1.20;;
19653;SDS011;9975;48.046;7.804;2022-07-03T16:48:33;1.10;;;1.00;;
19653;SDS011;9975;48.046;7.804;2022-07-03T16:51:09;1.60;;;1.50;;
19653;SDS011;9975;48.046;7.804;2022-07-03T16:53:37;1.67;;;1.30;;
19653;SDS011;9975;48.046;7.804;2022-07-03T16:56:04;1.43;;;1.20;;
19653;SDS011;9975;48.046;7.804;2022-07-03T16:58:31;1.03;;;1.03;;
19653;SDS011;9975;48.046;7.804;2022-07-03T17:00:59;1.07;;;1.07;;
19653;SDS011;9975;48.046;7.804;2022-07-03T17:03:29;1.40;;;1.00;;
19653;SDS011;9975;48.046;7.804;2022-07-03T17:05:55;1.33;;;1.23;;
19653;SDS011;9975;48.046;7.804;2022-07-03T17:08:22;3.17;;;1.13;;
19653;SDS011;9975;48.046;7.804;2022-07-03T17:10:48;1.30;;;1.10;;
19653;SDS011;9975;48.046;7.804;2022-07-03T17:13:15;2.80;;;1.03;;
19653;SDS011;9975;48.046;7.804;2022-07-03T17:15:42;0.90;;;0.90;;
19653;SDS011;9975;48.046;7.804;2022-07-03T17:18:09;0.93;;;0.93;;
19653;SDS011;9975;48.046;7.804;2022-07-03T17:20:36;3.40;;;1.10;;
19653;SDS011;9975;48.046;7.804;2022-07-03T17:23:11;1.57;;;1.20;;
19653;SDS011;9975;48.046;7.804;2022-07-03T17:25:43;1.07;;;0.97;;
19653;SDS011;9975;48.046;7.804;2022-07-03T17:31:02;3.17;;;1.73;;
19653;SDS011;9975;48.046;7.804;2022-07-03T17:33:28;1.57;;;1.13;;
19653;SDS011;9975;48.046;7.804;2022-07-03T17:36:19;1.47;;;1.33;;
19653;SDS011;9975;48.046;7.804;2022-07-03T17:38:45;2.47;;;1.80;;
19653;SDS011;9975;48.046;7.804;2022-07-03T17:41:14;5.60;;;1.80;;
19653;SDS011;9975;48.046;7.804;2022-07-03T17:43:42;1.10;;;1.00;;
19653;SDS011;9975;48.046;7.804;2022-07-03T17:46:08;1.87;;;1.10;;
19653;SDS011;9975;48.046;7.804;2022-07-03T17:48:36;4.67;;;1.87;;
19653;SDS011;9975;48.046;7.804;2022-07-03T17:51:03;2.60;;;1.00;;
19653;SDS011;9975;48.046;7.804;2022-07-03T17:53:30;0.97;;;0.90;;
19653;SDS011;9975;48.046;7.804;2022-07-03T17:55:57;1.10;;;1.10;;
19653;SDS011;9975;48.046;7.804;2022-07-03T17:58:25;3.10;;;1.50;;
19653;SDS011;9975;48.046;7.804;2022-07-03T18:00:50;1.10;;;1.10;;
19653;SDS011;9975;48.046;7.804;2022-07-03T18:03:16;1.63;;;1.23;;
19653;SDS011;9975;48.046;7.804;2022-07-03T18:05:42;2.70;;;1.57;;
19653;SDS011;9975;48.046;7.804;2022-07-03T18:08:11;5.60;;;1.10;;
19653;SDS011;9975;48.046;7.804;2022-07-03T18:10:40;1.60;;;1.13;;
19653;SDS011;9975;48.046;7.804;2022-07-03T18:13:08;2.40;;;1.23;;
19653;SDS011;9975;48.046;7.804;2022-07-03T18:15:48;2.00;;;1.30;;
19653;SDS011;9975;48.046;7.804;2022-07-03T18:18:22;1.50;;;1.23;;
19653;SDS011;9975;48.046;7.804;2022-07-03T18:20:59;4.90;;;1.80;;
19653;SDS011;9975;48.046;7.804;2022-07-03T18:23:29;1.67;;;1.57;;
19653;SDS011;9975;48.046;7.804;2022-07-03T18:26:03;1.40;;;1.10;;
19653;SDS011;9975;48.046;7.804;2022-07-03T18:28:30;3.90;;;1.23;;
19653;SDS011;9975;48.046;7.804;2022-07-03T18:30:58;5.35;;;1.50;;
19653;SDS011;9975;48.046;7.804;2022-07-03T18:33:24;2.67;;;1.17;;
19653;SDS011;9975;48.046;7.804;2022-07-03T18:35:56;1.20;;;1.10;;
19653;SDS011;9975;48.046;7.804;2022-07-03T18:38:24;1.90;;;1.20;;
19653;SDS011;9975;48.046;7.804;2022-07-03T18:40:52;2.90;;;1.17;;
19653;SDS011;9975;48.046;7.804;2022-07-03T18:43:18;2.07;;;1.10;;